createdAt,value
2019-04-07T00:34:27.625Z,15.63
2019-04-07T00:35:31.499Z,15.68
2019-04-07T00:37:27.372Z,15.67
2019-04-07T00:38:27.218Z,15.54
2019-04-07T00:39:27.207Z,15.49
2019-04-07T00:40:27.248Z,15.49
2019-04-07T00:41:27.532Z,15.51
2019-04-07T00:42:27.509Z,15.45
2019-04-07T00:43:27.506Z,15.57
2019-04-07T00:44:27.154Z,15.38
2019-04-07T00:45:27.143Z,15.29
2019-04-07T00:46:27.917Z,15.08
2019-04-07T00:47:27.123Z,15.02
2019-04-07T00:48:27.501Z,15.08
2019-04-07T00:49:27.098Z,15.14
2019-04-07T00:50:27.086Z,15.05
2019-04-07T00:51:27.643Z,14.83
2019-04-07T00:52:27.309Z,14.64
2019-04-07T00:53:27.056Z,14.53
2019-04-07T00:54:27.046Z,14.43
2019-04-07T00:55:27.037Z,14.37
2019-04-07T00:56:27.034Z,14.28
2019-04-07T00:57:27.517Z,14.44
2019-04-07T00:58:27.005Z,14.42
2019-04-07T00:59:27.061Z,14.43
2019-04-07T01:00:27.031Z,14.49
2019-04-07T01:01:27.141Z,14.52
2019-04-07T01:02:27.602Z,14.62
2019-04-07T01:03:27.580Z,14.65
2019-04-07T01:04:27.597Z,14.62
2019-04-07T01:05:35.706Z,14.67
2019-04-07T01:06:28.305Z,14.68
2019-04-07T01:07:26.911Z,14.79
2019-04-07T01:08:27.138Z,14.83
2019-04-07T01:09:27.681Z,15.01
2019-04-07T01:10:27.325Z,15.22
2019-04-07T01:11:26.863Z,15.30
2019-04-07T01:12:26.857Z,15.49
2019-04-07T01:13:27.323Z,15.54
2019-04-07T01:14:26.831Z,15.54
2019-04-07T01:15:27.235Z,15.54
2019-04-07T01:16:27.368Z,15.70
2019-04-07T01:17:26.933Z,15.88
2019-04-07T01:18:27.689Z,16.00
2019-04-07T01:19:26.786Z,16.19
2019-04-07T01:20:26.905Z,16.15
2019-04-07T01:21:26.809Z,16.11
2019-04-07T01:22:26.745Z,16.19
2019-04-07T01:23:26.957Z,16.30
2019-04-07T01:24:26.732Z,16.26
2019-04-07T01:25:26.827Z,16.37
2019-04-07T01:26:26.705Z,16.39
2019-04-07T01:27:26.999Z,16.58
2019-04-07T01:28:26.682Z,16.55
2019-04-07T01:29:26.721Z,16.69
2019-04-07T01:30:27.222Z,16.82
2019-04-07T01:31:26.653Z,16.82
2019-04-07T01:32:26.711Z,16.96
2019-04-07T01:33:26.680Z,17.07
2019-04-07T01:34:27.263Z,17.23
2019-04-07T01:35:26.791Z,17.35
2019-04-07T01:36:26.601Z,17.36
2019-04-07T01:37:26.587Z,17.43
2019-04-07T01:38:26.774Z,17.61
2019-04-07T01:39:27.298Z,17.83
2019-04-07T01:40:26.549Z,18.03
2019-04-07T01:41:26.541Z,18.39
2019-04-07T01:42:26.533Z,18.64
2019-04-07T01:43:26.631Z,19.13
2019-04-07T01:44:26.687Z,19.46
2019-04-07T01:45:26.912Z,19.68
2019-04-07T01:46:26.494Z,20.00
2019-04-07T01:47:26.704Z,20.49
2019-04-07T01:48:26.867Z,20.94
2019-04-07T01:49:27.156Z,21.54
2019-04-07T01:50:26.493Z,21.90
2019-04-07T01:51:26.591Z,22.08
2019-04-07T01:52:26.425Z,22.12
2019-04-07T01:53:26.419Z,22.19
2019-04-07T01:54:26.408Z,22.37
2019-04-07T01:55:26.851Z,22.48
2019-04-07T01:56:26.438Z,22.72
2019-04-07T01:57:26.371Z,22.87
2019-04-07T01:58:26.467Z,23.04
2019-04-07T01:59:26.552Z,22.90
2019-04-07T02:00:26.563Z,22.83
2019-04-07T02:01:26.339Z,22.92
2019-04-07T02:02:26.421Z,23.11
2019-04-07T02:03:26.548Z,23.11
2019-04-07T02:04:27.021Z,23.07
2019-04-07T02:05:26.333Z,22.83
2019-04-07T02:06:26.627Z,22.75
2019-04-07T02:07:26.269Z,22.77
2019-04-07T02:08:26.413Z,22.92
2019-04-07T02:09:26.472Z,22.72
2019-04-07T02:10:26.235Z,22.87
2019-04-07T02:11:26.436Z,22.80
2019-04-07T02:12:26.824Z,22.69
2019-04-07T02:13:26.441Z,22.65
2019-04-07T02:14:26.701Z,22.48
2019-04-07T02:15:26.767Z,22.34
2019-04-07T02:16:26.866Z,22.37
2019-04-07T02:17:26.372Z,22.09
2019-04-07T02:18:26.182Z,22.05
2019-04-07T02:19:26.322Z,21.93
2019-04-07T02:20:26.688Z,22.05
2019-04-07T02:21:26.120Z,21.76
2019-04-07T02:22:26.455Z,21.85
2019-04-07T02:23:26.565Z,21.76
2019-04-07T02:24:26.703Z,21.64
2019-04-07T02:25:26.263Z,21.71
2019-04-07T02:26:26.773Z,21.56
2019-04-07T02:27:26.064Z,21.54
2019-04-07T02:28:26.418Z,21.63
2019-04-07T02:29:26.042Z,21.76
2019-04-07T02:30:26.031Z,21.67
2019-04-07T02:31:26.024Z,21.51
2019-04-07T02:32:27.604Z,21.57
2019-04-07T02:33:26.001Z,21.60
2019-04-07T02:34:25.998Z,21.54
2019-04-07T02:35:25.992Z,21.57
2019-04-07T02:36:30.148Z,21.41
2019-04-07T02:37:26.624Z,21.51
2019-04-07T02:38:26.029Z,21.54
2019-04-07T02:39:25.938Z,21.36
2019-04-07T02:40:26.757Z,21.51
2019-04-07T02:41:26.113Z,21.74
2019-04-07T02:42:26.580Z,22.00
2019-04-07T02:43:25.945Z,22.15
2019-04-07T02:44:25.889Z,22.34
2019-04-07T02:45:25.880Z,22.37
2019-04-07T02:46:26.972Z,22.56
2019-04-07T02:47:25.851Z,22.83
2019-04-07T02:48:26.553Z,22.86
2019-04-07T02:49:26.304Z,22.93
2019-04-07T02:50:26.207Z,22.92
2019-04-07T02:51:26.246Z,22.96
2019-04-07T02:52:25.800Z,22.97
2019-04-07T02:53:25.791Z,22.94
2019-04-07T02:54:25.781Z,23.20
2019-04-07T02:55:26.774Z,23.39
2019-04-07T02:56:25.763Z,23.46
2019-04-07T02:57:26.843Z,23.63
2019-04-07T02:58:25.747Z,23.76
2019-04-07T02:59:25.755Z,24.02
2019-04-07T03:00:25.718Z,24.19
2019-04-07T03:01:26.473Z,24.60
2019-04-07T03:02:25.694Z,24.96
2019-04-07T03:03:25.710Z,25.21
2019-04-07T03:04:26.315Z,25.57
2019-04-07T03:05:26.685Z,25.83
2019-04-07T03:06:37.475Z,26.11
2019-04-07T03:07:50.557Z,26.42
2019-04-07T03:08:50.658Z,26.78
2019-04-07T03:09:51.617Z,26.91
2019-04-07T03:10:51.205Z,27.05
2019-04-07T03:11:50.990Z,27.04
2019-04-07T03:12:51.212Z,26.98
2019-04-07T03:13:50.491Z,26.83
2019-04-07T03:14:50.700Z,26.57
2019-04-07T03:15:50.533Z,26.48
2019-04-07T03:16:51.472Z,26.38
2019-04-07T03:17:50.449Z,26.17
2019-04-07T03:18:50.761Z,25.94
2019-04-07T03:19:50.473Z,25.80
2019-04-07T03:20:50.426Z,25.75
2019-04-07T03:21:50.403Z,25.61
2019-04-07T03:22:50.767Z,25.54
2019-04-07T03:23:51.382Z,25.64
2019-04-07T03:24:50.479Z,25.68
2019-04-07T03:25:50.364Z,25.62
2019-04-07T03:26:51.424Z,25.56
2019-04-07T03:27:51.410Z,25.34
2019-04-07T03:28:50.348Z,25.12
2019-04-07T03:29:50.324Z,24.99
2019-04-07T03:30:51.904Z,24.75
2019-04-07T03:31:51.395Z,24.59
2019-04-07T03:32:52.947Z,24.45
2019-04-07T03:33:51.933Z,24.42
2019-04-07T03:34:51.989Z,24.34
2019-04-07T03:35:53.115Z,24.39
2019-04-07T03:37:17.277Z,24.29
2019-04-07T03:37:51.579Z,24.24
2019-04-07T03:38:50.385Z,24.14
2019-04-07T03:39:50.216Z,24.13
2019-04-07T03:40:50.308Z,24.13
2019-04-07T03:41:51.995Z,24.13
2019-04-07T03:42:51.006Z,24.14
2019-04-07T03:43:50.893Z,24.13
2019-04-07T03:44:50.916Z,24.14
2019-04-07T03:45:50.205Z,24.12
2019-04-07T03:46:50.141Z,24.13
2019-04-07T03:47:50.467Z,24.34
2019-04-07T03:48:50.807Z,24.38
2019-04-07T03:49:50.863Z,24.42
2019-04-07T03:50:50.831Z,24.50
2019-04-07T03:51:50.087Z,24.54
2019-04-07T03:52:51.047Z,24.59
2019-04-07T03:53:50.549Z,24.74
2019-04-07T03:54:50.859Z,24.84
2019-04-07T03:55:50.042Z,24.89
2019-04-07T03:56:50.077Z,25.11
2019-04-07T03:57:50.675Z,25.16
2019-04-07T03:58:50.737Z,25.47
2019-04-07T03:59:50.031Z,25.75
2019-04-07T04:00:50.304Z,26.34
2019-04-07T04:01:49.987Z,26.87
2019-04-07T04:02:50.573Z,27.42
2019-04-07T04:03:49.977Z,27.61
2019-04-07T04:04:50.140Z,27.75
2019-04-07T04:05:52.172Z,27.78
2019-04-07T04:06:49.927Z,27.72
2019-04-07T04:07:49.915Z,27.97
2019-04-07T04:08:50.958Z,28.10
2019-04-07T04:09:49.891Z,28.15
2019-04-07T04:10:50.183Z,28.28
2019-04-07T04:11:49.873Z,28.35
2019-04-07T04:12:50.256Z,28.51
2019-04-07T04:13:50.923Z,28.72
2019-04-07T04:14:50.812Z,28.95
2019-04-07T04:15:50.110Z,29.09
2019-04-07T04:16:50.746Z,29.70
2019-04-07T04:17:49.808Z,29.87
2019-04-07T04:18:50.361Z,30.23
2019-04-07T04:19:49.788Z,30.05
2019-04-07T04:20:49.875Z,30.07
2019-04-07T04:21:49.767Z,30.36
2019-04-07T04:22:50.640Z,30.67
2019-04-07T04:23:49.747Z,31.07
2019-04-07T04:24:49.974Z,31.54
2019-04-07T04:25:49.729Z,31.80
2019-04-07T04:26:50.120Z,32.05
2019-04-07T04:27:50.656Z,32.31
2019-04-07T04:28:49.697Z,32.61
2019-04-07T04:29:51.942Z,32.74
2019-04-07T04:30:50.680Z,32.93
2019-04-07T04:31:49.665Z,33.08
2019-04-07T04:32:49.721Z,33.19
2019-04-07T04:33:49.642Z,33.40
2019-04-07T04:34:49.733Z,33.63
2019-04-07T04:35:49.646Z,33.86
2019-04-07T04:36:50.268Z,34.13
2019-04-07T04:37:52.358Z,34.09
2019-04-07T04:38:50.265Z,34.32
2019-04-07T04:39:49.587Z,34.46
2019-04-07T04:40:50.462Z,34.51
2019-04-07T04:41:49.566Z,34.69
2019-04-07T04:42:50.358Z,34.72
2019-04-07T04:43:49.547Z,34.75
2019-04-07T04:44:49.846Z,34.46
2019-04-07T04:45:50.452Z,34.57
2019-04-07T04:46:49.513Z,34.31
2019-04-07T04:47:49.514Z,33.84
2019-04-07T04:48:49.593Z,33.81
2019-04-07T04:49:50.297Z,33.47
2019-04-07T04:50:50.410Z,33.48
2019-04-07T04:51:50.070Z,33.63
2019-04-07T04:52:49.448Z,33.64
2019-04-07T04:53:50.287Z,33.69
2019-04-07T04:54:49.692Z,33.44
2019-04-07T04:55:49.529Z,33.06
2019-04-07T04:56:50.103Z,32.92
2019-04-07T04:57:49.843Z,32.85
2019-04-07T04:58:50.399Z,32.73
2019-04-07T04:59:49.375Z,32.77
2019-04-07T05:00:50.547Z,32.51
2019-04-07T05:01:49.944Z,32.41
2019-04-07T05:02:49.591Z,32.29
2019-04-07T05:03:49.450Z,32.14
2019-04-07T05:04:49.707Z,32.14
2019-04-07T05:05:49.390Z,32.31
2019-04-07T05:06:49.301Z,32.16
2019-04-07T05:07:57.683Z,32.16
2019-04-07T05:09:14.590Z,32.47
2019-04-07T05:10:14.195Z,32.61
2019-04-07T05:11:14.668Z,32.62
2019-04-07T05:12:14.165Z,32.12
2019-04-07T05:13:14.155Z,31.86
2019-04-07T05:14:14.243Z,31.83
2019-04-07T05:15:14.737Z,31.40
2019-04-07T05:16:14.129Z,30.86
2019-04-07T05:17:14.128Z,30.58
2019-04-07T05:18:14.310Z,30.46
2019-04-07T05:19:14.292Z,30.40
2019-04-07T05:20:14.236Z,29.81
2019-04-07T05:21:14.073Z,29.59
2019-04-07T05:22:14.510Z,29.24
2019-04-07T05:23:14.131Z,29.12
2019-04-07T05:24:14.653Z,29.15
2019-04-07T05:25:14.056Z,29.09
2019-04-07T05:26:14.710Z,29.09
2019-04-07T05:27:14.017Z,29.06
2019-04-07T05:28:14.006Z,29.22
2019-04-07T05:29:14.625Z,29.30
2019-04-07T05:30:13.984Z,29.27
2019-04-07T05:31:14.498Z,29.30
2019-04-07T05:32:14.562Z,29.28
2019-04-07T05:33:14.139Z,29.44
2019-04-07T05:34:17.229Z,29.42
2019-04-07T05:35:14.281Z,29.59
2019-04-07T05:36:14.740Z,29.54
2019-04-07T05:37:14.089Z,29.55
2019-04-07T05:38:14.573Z,29.49
2019-04-07T05:39:13.894Z,29.39
2019-04-07T05:40:14.035Z,29.52
2019-04-07T05:41:14.143Z,29.56
2019-04-07T05:42:14.654Z,29.56
2019-04-07T05:43:13.856Z,29.51
2019-04-07T05:44:13.946Z,29.34
2019-04-07T05:45:13.834Z,29.18
2019-04-07T05:46:13.913Z,29.10
2019-04-07T05:47:15.254Z,29.14
2019-04-07T05:48:17.323Z,29.28
2019-04-07T05:49:16.226Z,29.32
2019-04-07T05:50:14.307Z,29.25
2019-04-07T05:51:14.347Z,29.18
2019-04-07T05:52:13.956Z,29.17
2019-04-07T05:53:14.791Z,29.19
2019-04-07T05:54:16.912Z,29.17
2019-04-07T05:55:14.219Z,29.02
2019-04-07T05:56:13.720Z,29.00
2019-04-07T05:57:13.709Z,28.80
2019-04-07T05:58:15.687Z,28.59
2019-04-07T05:59:14.648Z,28.41
2019-04-07T06:00:16.343Z,28.21
2019-04-07T06:01:14.052Z,27.75
2019-04-07T06:02:14.366Z,27.48
2019-04-07T06:03:13.647Z,27.21
2019-04-07T06:04:17.506Z,26.80
2019-04-07T06:05:16.285Z,26.57
2019-04-07T06:06:13.665Z,26.46
2019-04-07T06:07:13.824Z,26.57
2019-04-07T06:08:24.637Z,26.43
2019-04-07T06:09:38.398Z,26.48
2019-04-07T06:10:38.761Z,26.31
2019-04-07T06:11:38.820Z,26.30
2019-04-07T06:12:40.339Z,26.23
2019-04-07T06:13:39.075Z,26.11
2019-04-07T06:14:38.885Z,26.09
2019-04-07T06:15:38.337Z,26.26
2019-04-07T06:16:38.766Z,26.42
2019-04-07T06:17:39.100Z,26.41
2019-04-07T06:18:38.302Z,26.57
2019-04-07T06:19:41.090Z,26.61
2019-04-07T06:20:38.280Z,26.56
2019-04-07T06:21:38.659Z,26.36
2019-04-07T06:22:38.804Z,26.23
2019-04-07T06:23:38.656Z,26.28
2019-04-07T06:24:38.430Z,26.36
2019-04-07T06:25:41.717Z,26.49
2019-04-07T06:26:41.621Z,26.43
2019-04-07T06:27:38.430Z,26.61
2019-04-07T06:28:38.199Z,26.73
2019-04-07T06:29:38.903Z,26.76
2019-04-07T06:30:38.175Z,26.91
2019-04-07T06:31:38.171Z,26.91
2019-04-07T06:32:39.489Z,27.02
2019-04-07T06:33:39.349Z,26.95
2019-04-07T06:34:41.095Z,26.95
2019-04-07T06:35:38.148Z,26.95
2019-04-07T06:36:38.680Z,26.87
2019-04-07T06:37:38.660Z,27.01
2019-04-07T06:38:42.553Z,27.02
2019-04-07T06:40:03.558Z,27.11
2019-04-07T06:41:03.136Z,27.09
2019-04-07T06:42:03.527Z,27.17
2019-04-07T06:43:05.280Z,27.11
2019-04-07T06:44:12.739Z,27.05
2019-04-07T06:45:28.316Z,27.16
2019-04-07T06:46:28.670Z,27.19
2019-04-07T06:47:30.816Z,27.13
2019-04-07T06:48:27.728Z,27.16
2019-04-07T06:49:29.448Z,27.31
2019-04-07T06:50:28.069Z,27.29
2019-04-07T06:51:30.926Z,27.29
2019-04-07T06:52:27.983Z,27.33
2019-04-07T06:53:27.995Z,27.35
2019-04-07T06:54:27.664Z,27.43
2019-04-07T06:55:28.918Z,27.38
2019-04-07T06:56:32.177Z,27.39
2019-04-07T06:57:28.299Z,27.32
2019-04-07T06:58:27.621Z,27.31
2019-04-07T06:59:28.298Z,27.23
2019-04-07T07:00:28.037Z,27.33
2019-04-07T07:01:27.640Z,27.35
2019-04-07T07:02:29.525Z,27.28
2019-04-07T07:03:28.244Z,27.29
2019-04-07T07:04:27.676Z,27.29
2019-04-07T07:05:27.900Z,27.28
2019-04-07T07:06:28.462Z,27.32
2019-04-07T07:07:28.139Z,27.29
2019-04-07T07:08:28.328Z,27.28
2019-04-07T07:09:27.854Z,27.35
2019-04-07T07:10:30.347Z,27.36
2019-04-07T07:11:52.296Z,27.33
2019-04-07T07:12:52.332Z,27.26
2019-04-07T07:13:52.269Z,27.35
2019-04-07T07:14:52.839Z,27.35
2019-04-07T07:15:52.895Z,27.31
2019-04-07T07:16:52.244Z,27.43
2019-04-07T07:17:54.896Z,27.58
2019-04-07T07:18:54.713Z,27.51
2019-04-07T07:19:55.661Z,27.76
2019-04-07T07:20:52.687Z,27.88
2019-04-07T07:21:55.742Z,27.88
2019-04-07T07:22:52.666Z,27.84
2019-04-07T07:23:52.549Z,27.87
2019-04-07T07:24:56.453Z,27.81
2019-04-07T07:26:25.358Z,27.75
2019-04-07T07:27:25.821Z,27.84
2019-04-07T07:28:25.095Z,27.84
2019-04-07T07:29:26.609Z,27.75
2019-04-07T07:30:28.318Z,27.75
2019-04-07T07:31:26.343Z,27.81
2019-04-07T07:32:25.057Z,27.75
2019-04-07T07:33:25.044Z,27.79
2019-04-07T07:34:25.037Z,27.76
2019-04-07T07:35:25.606Z,27.87
2019-04-07T07:36:25.016Z,27.90
2019-04-07T07:37:26.155Z,27.93
2019-04-07T07:38:29.713Z,27.90
2019-04-07T07:39:25.142Z,27.97
2019-04-07T07:40:25.421Z,27.88
2019-04-07T07:41:25.351Z,27.90
2019-04-07T07:42:25.650Z,27.72
2019-04-07T07:43:27.924Z,27.69
2019-04-07T07:44:24.928Z,27.66
2019-04-07T07:45:25.043Z,27.69
2019-04-07T07:46:24.909Z,27.76
2019-04-07T07:47:25.387Z,27.73
2019-04-07T07:48:27.955Z,27.68
2019-04-07T07:49:24.877Z,27.78
2019-04-07T07:50:25.409Z,27.73
2019-04-07T07:51:24.905Z,27.78
2019-04-07T07:52:25.493Z,27.73
2019-04-07T07:53:28.101Z,27.84
2019-04-07T07:54:27.729Z,27.81
2019-04-07T07:55:25.290Z,27.75
2019-04-07T07:56:25.559Z,27.61
2019-04-07T07:57:24.972Z,27.42
2019-04-07T07:58:27.938Z,27.33
2019-04-07T07:59:52.746Z,27.32
2019-04-07T08:00:52.684Z,27.23
2019-04-07T08:01:53.407Z,27.19
2019-04-07T08:02:53.569Z,27.19
2019-04-07T08:03:55.689Z,27.31
2019-04-07T08:04:56.541Z,27.26
2019-04-07T08:05:53.327Z,27.33
2019-04-07T08:06:53.361Z,27.31
2019-04-07T08:07:52.606Z,27.31
2019-04-07T08:08:52.652Z,27.29
2019-04-07T08:09:54.386Z,27.36
2019-04-07T08:10:56.162Z,27.38
2019-04-07T08:11:52.789Z,27.39
2019-04-07T08:12:53.165Z,27.41
2019-04-07T08:13:52.575Z,27.46
2019-04-07T08:14:55.561Z,27.46
2019-04-07T08:15:54.630Z,27.46
2019-04-07T08:16:53.112Z,27.51
2019-04-07T08:17:53.133Z,27.53
2019-04-07T08:18:52.500Z,27.57
2019-04-07T08:19:52.483Z,27.56
2019-04-07T08:20:53.295Z,27.70
2019-04-07T08:21:53.004Z,27.76
2019-04-07T08:22:52.451Z,27.85
2019-04-07T08:23:52.537Z,27.88
2019-04-07T08:24:52.426Z,27.88
2019-04-07T08:25:54.470Z,27.97
2019-04-07T08:26:56.282Z,27.94
2019-04-07T08:27:53.094Z,28.08
2019-04-07T08:28:52.597Z,28.09
2019-04-07T08:29:52.672Z,28.08
2019-04-07T08:30:52.368Z,28.00
2019-04-07T08:31:55.458Z,28.02
2019-04-07T08:32:52.341Z,27.85
2019-04-07T08:33:52.778Z,27.81
2019-04-07T08:34:52.325Z,27.85
2019-04-07T08:35:54.883Z,27.94
2019-04-07T08:36:53.063Z,27.85
2019-04-07T08:37:52.286Z,27.85
2019-04-07T08:38:55.079Z,27.88
2019-04-07T08:39:52.593Z,27.75
2019-04-07T08:40:54.282Z,27.72
2019-04-07T08:41:52.898Z,27.85
2019-04-07T08:42:52.236Z,27.93
2019-04-07T08:43:55.441Z,27.90
2019-04-07T08:44:52.296Z,27.93
2019-04-07T08:46:25.183Z,28.03
2019-04-07T08:47:25.809Z,27.98
2019-04-07T08:48:25.616Z,28.06
2019-04-07T08:49:25.622Z,28.08
2019-04-07T08:50:27.699Z,28.06
2019-04-07T08:51:29.342Z,28.06
2019-04-07T08:52:25.114Z,28.10
2019-04-07T08:53:25.151Z,27.98
2019-04-07T08:54:25.091Z,27.85
2019-04-07T08:55:25.889Z,27.97
2019-04-07T08:56:26.645Z,27.91
2019-04-07T08:57:27.208Z,27.84
2019-04-07T08:58:28.577Z,27.73
2019-04-07T08:59:25.039Z,27.84
2019-04-07T09:00:25.023Z,27.73
2019-04-07T09:01:28.446Z,27.76
2019-04-07T09:02:26.890Z,27.68
2019-04-07T09:03:24.997Z,27.70
2019-04-07T09:04:25.275Z,27.81
2019-04-07T09:05:29.023Z,27.70
2019-04-07T09:06:27.297Z,27.78
2019-04-07T09:07:24.959Z,27.69
2019-04-07T09:08:24.945Z,27.69
2019-04-07T09:09:58.717Z,27.68
2019-04-07T09:10:58.228Z,27.57
2019-04-07T09:11:57.880Z,27.68
2019-04-07T09:13:00.646Z,27.73
2019-04-07T09:13:58.182Z,27.76
2019-04-07T09:14:58.317Z,27.69
2019-04-07T09:15:57.990Z,27.78
2019-04-07T09:16:58.236Z,27.75
2019-04-07T09:17:57.819Z,27.83
2019-04-07T09:19:03.792Z,27.81
2019-04-07T09:19:59.795Z,27.76
2019-04-07T09:20:57.785Z,27.87
2019-04-07T09:21:57.873Z,27.84
2019-04-07T09:22:58.239Z,27.90
2019-04-07T09:23:57.799Z,27.85
2019-04-07T09:24:57.902Z,27.79
2019-04-07T09:25:58.367Z,27.83
2019-04-07T09:26:57.853Z,27.84
2019-04-07T09:27:58.358Z,27.93
2019-04-07T09:28:57.697Z,27.85
2019-04-07T09:29:58.185Z,27.91
2019-04-07T09:31:00.293Z,27.91
2019-04-07T09:31:57.668Z,27.94
2019-04-07T09:32:59.597Z,28.03
2019-04-07T09:33:57.643Z,27.95
2019-04-07T09:34:57.637Z,27.97
2019-04-07T09:35:59.252Z,27.97
2019-04-07T09:36:57.617Z,27.97
2019-04-07T09:38:00.458Z,27.90
2019-04-07T09:39:01.489Z,27.85
2019-04-07T09:40:01.166Z,27.83
2019-04-07T09:40:58.435Z,27.83
2019-04-07T09:41:57.561Z,27.84
2019-04-07T09:43:00.232Z,27.76
2019-04-07T09:44:01.151Z,27.90
2019-04-07T09:44:57.542Z,27.91
2019-04-07T09:45:58.329Z,27.91
2019-04-07T09:46:57.577Z,27.87
2019-04-07T09:47:57.626Z,27.85
2019-04-07T09:48:57.685Z,27.88
2019-04-07T09:49:58.405Z,27.93
2019-04-07T09:51:02.344Z,27.84
2019-04-07T09:52:22.274Z,27.75
2019-04-07T09:53:22.965Z,27.75
2019-04-07T09:54:23.334Z,27.63
2019-04-07T09:55:24.356Z,27.66
2019-04-07T09:56:22.791Z,27.57
2019-04-07T09:57:22.223Z,27.56
2019-04-07T09:58:22.204Z,27.54
2019-04-07T09:59:22.885Z,27.50
2019-04-07T10:00:23.954Z,27.48
2019-04-07T10:01:22.286Z,27.47
2019-04-07T10:02:22.177Z,27.39
2019-04-07T10:03:22.150Z,27.31
2019-04-07T10:04:22.142Z,27.38
2019-04-07T10:05:22.134Z,27.23
2019-04-07T10:06:22.130Z,27.17
2019-04-07T10:07:22.938Z,27.20
2019-04-07T10:08:22.101Z,27.02
2019-04-07T10:09:22.957Z,27.09
2019-04-07T10:10:22.666Z,27.10
2019-04-07T10:11:22.115Z,27.04
2019-04-07T10:12:22.062Z,26.99
2019-04-07T10:13:22.785Z,26.96
2019-04-07T10:14:22.039Z,26.98
2019-04-07T10:15:22.418Z,26.91
2019-04-07T10:16:22.228Z,26.79
2019-04-07T10:17:22.239Z,26.73
2019-04-07T10:18:22.877Z,26.73
2019-04-07T10:19:22.089Z,26.71
2019-04-07T10:20:23.195Z,26.67
2019-04-07T10:21:24.223Z,26.76
2019-04-07T10:22:21.960Z,26.68
2019-04-07T10:23:22.012Z,26.72
2019-04-07T10:24:21.933Z,26.72
2019-04-07T10:25:24.815Z,26.63
2019-04-07T10:26:21.916Z,26.60
2019-04-07T10:27:22.400Z,26.57
2019-04-07T10:28:22.377Z,26.58
2019-04-07T10:29:21.974Z,26.53
2019-04-07T10:30:22.560Z,26.51
2019-04-07T10:31:22.454Z,26.54
2019-04-07T10:32:24.722Z,26.53
2019-04-07T10:33:22.528Z,26.38
2019-04-07T10:34:22.524Z,26.43
2019-04-07T10:35:22.436Z,26.27
2019-04-07T10:36:22.802Z,26.35
2019-04-07T10:37:21.962Z,26.26
2019-04-07T10:38:21.804Z,26.12
2019-04-07T10:39:21.784Z,26.09
2019-04-07T10:40:22.515Z,26.08
2019-04-07T10:41:21.810Z,25.91
2019-04-07T10:42:21.928Z,26.02
2019-04-07T10:43:21.749Z,25.87
2019-04-07T10:44:21.728Z,25.89
2019-04-07T10:45:21.798Z,25.87
2019-04-07T10:46:22.588Z,25.79
2019-04-07T10:47:21.853Z,25.79
2019-04-07T10:48:24.347Z,25.77
2019-04-07T10:49:21.681Z,25.79
2019-04-07T10:50:22.183Z,25.75
2019-04-07T10:51:21.686Z,25.68
2019-04-07T10:52:21.653Z,25.68
2019-04-07T10:53:49.670Z,25.68
2019-04-07T10:54:49.549Z,25.54
2019-04-07T10:55:49.701Z,25.57
2019-04-07T10:56:49.813Z,25.56
2019-04-07T10:58:23.045Z,25.59
2019-04-07T10:59:22.532Z,25.52
2019-04-07T11:00:22.487Z,25.46
2019-04-07T11:01:22.459Z,25.46
2019-04-07T11:02:56.950Z,25.42
2019-04-07T11:03:56.410Z,25.33
2019-04-07T11:04:56.225Z,25.34
2019-04-07T11:05:55.404Z,25.33
2019-04-07T11:07:29.249Z,25.29
2019-04-07T11:08:28.784Z,25.26
2019-04-07T11:09:28.417Z,25.26
2019-04-07T11:10:34.290Z,25.29
2019-04-07T11:12:01.887Z,25.23
2019-04-07T11:13:01.795Z,25.18
2019-04-07T11:14:01.268Z,25.06
2019-04-07T11:15:01.257Z,25.04
2019-04-07T11:16:34.314Z,24.96
2019-04-07T11:17:34.207Z,24.99
2019-04-07T11:18:34.718Z,24.90
2019-04-07T11:19:34.412Z,24.94
2019-04-07T11:21:07.147Z,24.97
2019-04-07T11:22:07.835Z,24.97
2019-04-07T11:23:07.369Z,24.81
2019-04-07T11:24:07.128Z,24.86
2019-04-07T11:25:40.085Z,24.72
2019-04-07T11:26:40.378Z,24.76
2019-04-07T11:27:40.869Z,24.79
2019-04-07T11:28:40.099Z,24.75
2019-04-07T11:30:08.151Z,24.86
2019-04-07T11:31:08.109Z,24.78
2019-04-07T11:32:08.665Z,24.74
2019-04-07T11:33:07.979Z,24.74
2019-04-07T11:34:41.391Z,24.74
2019-04-07T11:35:41.393Z,24.79
2019-04-07T11:36:40.872Z,24.68
2019-04-07T11:37:40.858Z,24.64
2019-04-07T11:39:09.073Z,24.59
2019-04-07T11:40:08.751Z,24.47
2019-04-07T11:41:08.743Z,24.45
2019-04-07T11:42:08.867Z,24.44
2019-04-07T11:43:36.980Z,24.45
2019-04-07T11:44:36.688Z,24.31
2019-04-07T11:45:36.625Z,24.19
2019-04-07T11:46:36.618Z,24.14
2019-04-07T11:48:10.062Z,24.19
2019-04-07T11:49:11.544Z,24.01
2019-04-07T11:50:10.483Z,24.01
2019-04-07T11:51:09.661Z,23.94
2019-04-07T11:52:12.549Z,24.07
2019-04-07T11:53:09.526Z,24.05
2019-04-07T11:54:09.789Z,24.10
2019-04-07T11:55:10.250Z,24.05
2019-04-07T11:56:11.287Z,24.17
2019-04-07T11:57:09.834Z,24.17
2019-04-07T11:58:14.812Z,24.13
2019-04-07T11:59:34.930Z,24.17
2019-04-07T12:00:35.764Z,24.22
2019-04-07T12:01:34.935Z,24.14
2019-04-07T12:02:34.246Z,23.99
2019-04-07T12:03:34.346Z,23.86
2019-04-07T12:04:34.549Z,23.94
2019-04-07T12:05:34.213Z,23.84
2019-04-07T12:06:34.277Z,23.75
2019-04-07T12:07:34.513Z,23.76
2019-04-07T12:08:36.319Z,23.66
2019-04-07T12:09:34.836Z,23.60
2019-04-07T12:10:34.407Z,23.60
2019-04-07T12:11:34.372Z,23.48
2019-04-07T12:12:34.346Z,23.54
2019-04-07T12:13:34.888Z,23.49
2019-04-07T12:14:34.113Z,23.54
2019-04-07T12:15:34.730Z,23.61
2019-04-07T12:16:35.017Z,23.46
2019-04-07T12:17:34.766Z,23.45
2019-04-07T12:18:34.190Z,23.45
2019-04-07T12:19:34.119Z,23.46
2019-04-07T12:20:35.307Z,23.39
2019-04-07T12:21:36.966Z,23.45
2019-04-07T12:22:34.137Z,23.51
2019-04-07T12:23:37.047Z,23.56
2019-04-07T12:24:34.753Z,23.51
2019-04-07T12:25:34.665Z,23.51
2019-04-07T12:26:37.304Z,23.48
2019-04-07T12:28:03.903Z,23.44
2019-04-07T12:29:04.021Z,23.45
2019-04-07T12:30:04.360Z,23.49
2019-04-07T12:31:04.040Z,23.46
2019-04-07T12:32:32.507Z,23.51
2019-04-07T12:33:31.774Z,23.45
2019-04-07T12:34:32.194Z,23.57
2019-04-07T12:35:32.975Z,23.46
2019-04-07T12:36:32.161Z,23.45
2019-04-07T12:37:31.840Z,23.46
2019-04-07T12:38:31.887Z,23.54
2019-04-07T12:39:34.150Z,23.45
2019-04-07T12:40:32.282Z,23.46
2019-04-07T12:41:32.231Z,23.45
2019-04-07T12:42:31.773Z,23.44
2019-04-07T12:43:31.673Z,23.48
2019-04-07T12:44:31.646Z,23.51
2019-04-07T12:45:35.820Z,23.45
2019-04-07T12:46:31.623Z,23.52
2019-04-07T12:47:32.030Z,23.56
2019-04-07T12:48:32.090Z,23.59
2019-04-07T12:50:04.083Z,23.60
2019-04-07T12:51:03.454Z,23.61
2019-04-07T12:52:03.319Z,23.63
2019-04-07T12:53:04.994Z,23.64
2019-04-07T12:54:07.377Z,23.64
2019-04-07T12:55:03.284Z,23.71
2019-04-07T12:56:03.275Z,23.67
2019-04-07T12:57:05.970Z,23.64
2019-04-07T12:58:04.774Z,23.63
2019-04-07T12:59:03.397Z,23.69
2019-04-07T13:00:03.233Z,23.69
2019-04-07T13:01:09.794Z,23.60
2019-04-07T13:02:28.545Z,23.64
2019-04-07T13:03:28.828Z,23.70
2019-04-07T13:04:28.425Z,23.71
2019-04-07T13:05:28.606Z,23.74
2019-04-07T13:06:28.703Z,23.71
2019-04-07T13:07:28.482Z,23.71
2019-04-07T13:08:28.610Z,23.74
2019-04-07T13:09:31.934Z,23.69
2019-04-07T13:10:28.129Z,23.61
2019-04-07T13:11:33.775Z,23.51
2019-04-07T13:12:57.148Z,23.45
2019-04-07T13:13:54.268Z,23.64
2019-04-07T13:14:54.664Z,23.57
2019-04-07T13:15:54.349Z,23.45
2019-04-07T13:16:56.439Z,23.41
2019-04-07T13:17:56.338Z,23.37
2019-04-07T13:18:54.371Z,23.44
2019-04-07T13:19:55.260Z,23.37
2019-04-07T13:20:54.766Z,23.27
2019-04-07T13:22:22.572Z,23.37
2019-04-07T13:23:22.329Z,23.27
2019-04-07T13:24:30.308Z,23.22
2019-04-07T13:25:47.429Z,23.09
2019-04-07T13:26:47.124Z,23.05
2019-04-07T13:27:46.928Z,22.97
2019-04-07T13:28:46.856Z,22.92
2019-04-07T13:29:47.417Z,22.90
2019-04-07T13:30:46.956Z,22.94
2019-04-07T13:31:47.048Z,22.92
2019-04-07T13:32:51.602Z,22.74
2019-04-07T13:33:47.890Z,22.77
2019-04-07T13:34:46.791Z,22.72
2019-04-07T13:35:47.610Z,22.67
2019-04-07T13:36:46.772Z,22.55
2019-04-07T13:38:15.423Z,22.42
2019-04-07T13:39:15.257Z,22.42
2019-04-07T13:40:15.706Z,22.36
2019-04-07T13:41:17.739Z,22.38
2019-04-07T13:42:15.266Z,22.34
2019-04-07T13:43:14.627Z,22.36